sensor_id;sensor_type;location;lat;lon;timestamp;P1;durP1;ratioP1;P2;durP2;ratioP2
66970;SDS011;53901;51.466;-2.588;2022-12-29T00:01:33;21.92;;;2.78;;
66970;SDS011;53901;51.466;-2.588;2022-12-29T00:03:59;21.58;;;3.22;;
66970;SDS011;53901;51.466;-2.588;2022-12-29T00:06:24;17.42;;;3.00;;
66970;SDS011;53901;51.466;-2.588;2022-12-29T00:08:50;19.50;;;2.45;;
66970;SDS011;53901;51.466;-2.588;2022-12-29T00:11:17;15.65;;;2.70;;
66970;SDS011;53901;51.466;-2.588;2022-12-29T00:13:44;14.40;;;2.75;;
66970;SDS011;53901;51.466;-2.588;2022-12-29T00:16:28;22.17;;;2.97;;
66970;SDS011;53901;51.466;-2.588;2022-12-29T00:18:54;22.83;;;3.22;;
66970;SDS011;53901;51.466;-2.588;2022-12-29T00:21:20;17.13;;;2.70;;
66970;SDS011;53901;51.466;-2.588;2022-12-29T00:24:06;14.18;;;3.20;;
66970;SDS011;53901;51.466;-2.588;2022-12-29T00:26:57;23.92;;;3.22;;
66970;SDS011;53901;51.466;-2.588;2022-12-29T00:29:42;18.73;;;3.63;;
66970;SDS011;53901;51.466;-2.588;2022-12-29T00:32:26;12.07;;;2.72;;
66970;SDS011;53901;51.466;-2.588;2022-12-29T00:35:11;23.70;;;3.72;;
66970;SDS011;53901;51.466;-2.588;2022-12-29T00:37:42;23.10;;;3.38;;
66970;SDS011;53901;51.466;-2.588;2022-12-29T00:40:28;18.00;;;2.63;;
66970;SDS011;53901;51.466;-2.588;2022-12-29T00:43:12;21.48;;;3.60;;
66970;SDS011;53901;51.466;-2.588;2022-12-29T00:45:56;19.70;;;2.67;;
66970;SDS011;53901;51.466;-2.588;2022-12-29T00:48:22;16.88;;;2.63;;
66970;SDS011;53901;51.466;-2.588;2022-12-29T00:51:06;19.13;;;2.45;;
66970;SDS011;53901;51.466;-2.588;2022-12-29T00:53:32;18.38;;;2.70;;
66970;SDS011;53901;51.466;-2.588;2022-12-29T00:55:57;20.17;;;2.78;;
66970;SDS011;53901;51.466;-2.588;2022-12-29T00:58:23;18.50;;;3.30;;
66970;SDS011;53901;51.466;-2.588;2022-12-29T01:00:48;17.05;;;3.17;;
66970;SDS011;53901;51.466;-2.588;2022-12-29T01:03:14;21.50;;;2.83;;
66970;SDS011;53901;51.466;-2.588;2022-12-29T01:05:39;23.65;;;3.17;;
66970;SDS011;53901;51.466;-2.588;2022-12-29T01:08:04;23.17;;;3.53;;
66970;SDS011;53901;51.466;-2.588;2022-12-29T01:10:30;25.63;;;3.97;;
66970;SDS011;53901;51.466;-2.588;2022-12-29T01:12:55;19.30;;;3.40;;
66970;SDS011;53901;51.466;-2.588;2022-12-29T01:15:21;20.13;;;3.40;;
66970;SDS011;53901;51.466;-2.588;2022-12-29T01:17:46;21.60;;;2.83;;
66970;SDS011;53901;51.466;-2.588;2022-12-29T01:20:12;17.42;;;2.30;;
66970;SDS011;53901;51.466;-2.588;2022-12-29T01:22:38;21.73;;;2.88;;
66970;SDS011;53901;51.466;-2.588;2022-12-29T01:25:04;24.65;;;3.20;;
66970;SDS011;53901;51.466;-2.588;2022-12-29T01:27:30;23.33;;;3.30;;
66970;SDS011;53901;51.466;-2.588;2022-12-29T01:29:55;19.20;;;3.00;;
66970;SDS011;53901;51.466;-2.588;2022-12-29T01:32:21;22.20;;;2.88;;
66970;SDS011;53901;51.466;-2.588;2022-12-29T01:34:46;22.75;;;3.10;;
66970;SDS011;53901;51.466;-2.588;2022-12-29T01:37:12;14.73;;;2.97;;
66970;SDS011;53901;51.466;-2.588;2022-12-29T01:39:37;20.55;;;2.63;;
66970;SDS011;53901;51.466;-2.588;2022-12-29T01:42:02;20.70;;;2.55;;
66970;SDS011;53901;51.466;-2.588;2022-12-29T01:44:47;15.32;;;2.72;;
66970;SDS011;53901;51.466;-2.588;2022-12-29T01:47:48;15.98;;;2.85;;
66970;SDS011;53901;51.466;-2.588;2022-12-29T01:50:09;14.45;;;2.35;;
66970;SDS011;53901;51.466;-2.588;2022-12-29T01:52:40;15.13;;;2.67;;
66970;SDS011;53901;51.466;-2.588;2022-12-29T01:55:09;24.38;;;3.20;;
66970;SDS011;53901;51.466;-2.588;2022-12-29T01:57:36;20.23;;;2.38;;
66970;SDS011;53901;51.466;-2.588;2022-12-29T02:00:07;31.27;;;2.75;;
66970;SDS011;53901;51.466;-2.588;2022-12-29T02:02:34;8.50;;;2.05;;
66970;SDS011;53901;51.466;-2.588;2022-12-29T02:05:01;23.70;;;2.60;;
66970;SDS011;53901;51.466;-2.588;2022-12-29T02:07:30;18.08;;;2.85;;
66970;SDS011;53901;51.466;-2.588;2022-12-29T02:09:56;15.60;;;2.70;;
66970;SDS011;53901;51.466;-2.588;2022-12-29T02:12:22;19.52;;;2.88;;
66970;SDS011;53901;51.466;-2.588;2022-12-29T02:14:49;18.33;;;2.25;;
66970;SDS011;53901;51.466;-2.588;2022-12-29T02:20:23;20.05;;;2.42;;
66970;SDS011;53901;51.466;-2.588;2022-12-29T02:23:18;15.88;;;2.33;;
66970;SDS011;53901;51.466;-2.588;2022-12-29T02:42:23;13.52;;;2.67;;
66970;SDS011;53901;51.466;-2.588;2022-12-29T02:47:47;15.05;;;2.05;;
66970;SDS011;53901;51.466;-2.588;2022-12-29T02:53:00;14.80;;;2.38;;
66970;SDS011;53901;51.466;-2.588;2022-12-29T02:55:33;9.43;;;1.70;;
66970;SDS011;53901;51.466;-2.588;2022-12-29T02:58:18;6.72;;;1.25;;
66970;SDS011;53901;51.466;-2.588;2022-12-29T03:03:41;13.45;;;1.75;;
66970;SDS011;53901;51.466;-2.588;2022-12-29T03:11:58;20.90;;;2.55;;
66970;SDS011;53901;51.466;-2.588;2022-12-29T03:14:52;18.17;;;2.28;;
66970;SDS011;53901;51.466;-2.588;2022-12-29T03:20:14;22.73;;;2.25;;
66970;SDS011;53901;51.466;-2.588;2022-12-29T03:22:44;24.25;;;3.00;;
66970;SDS011;53901;51.466;-2.588;2022-12-29T03:25:15;15.25;;;2.08;;
66970;SDS011;53901;51.466;-2.588;2022-12-29T03:27:44;20.60;;;3.13;;
66970;SDS011;53901;51.466;-2.588;2022-12-29T03:30:12;28.30;;;3.92;;
66970;SDS011;53901;51.466;-2.588;2022-12-29T03:32:49;33.20;;;3.28;;
66970;SDS011;53901;51.466;-2.588;2022-12-29T03:35:17;33.72;;;3.80;;
66970;SDS011;53901;51.466;-2.588;2022-12-29T03:40:24;25.65;;;3.20;;
66970;SDS011;53901;51.466;-2.588;2022-12-29T03:42:51;23.20;;;2.55;;
66970;SDS011;53901;51.466;-2.588;2022-12-29T03:45:17;26.02;;;3.00;;
66970;SDS011;53901;51.466;-2.588;2022-12-29T03:47:44;20.42;;;3.28;;
66970;SDS011;53901;51.466;-2.588;2022-12-29T03:50:11;23.15;;;2.75;;
66970;SDS011;53901;51.466;-2.588;2022-12-29T03:52:37;19.38;;;2.28;;
66970;SDS011;53901;51.466;-2.588;2022-12-29T03:55:02;11.45;;;1.58;;
66970;SDS011;53901;51.466;-2.588;2022-12-29T03:57:28;21.00;;;2.78;;
66970;SDS011;53901;51.466;-2.588;2022-12-29T03:59:53;17.13;;;2.38;;
66970;SDS011;53901;51.466;-2.588;2022-12-29T04:02:19;12.93;;;2.22;;
66970;SDS011;53901;51.466;-2.588;2022-12-29T04:04:44;8.07;;;1.60;;
66970;SDS011;53901;51.466;-2.588;2022-12-29T04:07:09;14.00;;;1.67;;
66970;SDS011;53901;51.466;-2.588;2022-12-29T04:09:35;15.30;;;2.15;;
66970;SDS011;53901;51.466;-2.588;2022-12-29T04:12:00;9.55;;;1.92;;
66970;SDS011;53901;51.466;-2.588;2022-12-29T04:14:25;12.45;;;2.65;;
66970;SDS011;53901;51.466;-2.588;2022-12-29T04:16:51;16.45;;;3.10;;
66970;SDS011;53901;51.466;-2.588;2022-12-29T04:19:16;8.38;;;2.22;;
66970;SDS011;53901;51.466;-2.588;2022-12-29T04:21:42;15.55;;;2.42;;
66970;SDS011;53901;51.466;-2.588;2022-12-29T04:24:07;11.27;;;2.08;;
66970;SDS011;53901;51.466;-2.588;2022-12-29T04:26:32;19.13;;;2.63;;
66970;SDS011;53901;51.466;-2.588;2022-12-29T04:28:58;16.20;;;2.30;;
66970;SDS011;53901;51.466;-2.588;2022-12-29T04:31:23;10.55;;;2.05;;
66970;SDS011;53901;51.466;-2.588;2022-12-29T04:33:49;10.35;;;2.05;;
66970;SDS011;53901;51.466;-2.588;2022-12-29T04:36:14;13.18;;;2.22;;
66970;SDS011;53901;51.466;-2.588;2022-12-29T04:38:39;10.45;;;1.77;;
66970;SDS011;53901;51.466;-2.588;2022-12-29T04:41:05;13.68;;;1.90;;
66970;SDS011;53901;51.466;-2.588;2022-12-29T04:43:30;9.32;;;1.92;;
66970;SDS011;53901;51.466;-2.588;2022-12-29T04:45:55;14.38;;;2.00;;
66970;SDS011;53901;51.466;-2.588;2022-12-29T04:48:21;11.93;;;1.50;;
66970;SDS011;53901;51.466;-2.588;2022-12-29T04:50:49;10.50;;;1.70;;
66970;SDS011;53901;51.466;-2.588;2022-12-29T04:53:15;10.70;;;1.73;;
66970;SDS011;53901;51.466;-2.588;2022-12-29T04:55:41;11.35;;;1.60;;
66970;SDS011;53901;51.466;-2.588;2022-12-29T04:58:07;6.25;;;1.42;;
66970;SDS011;53901;51.466;-2.588;2022-12-29T05:00:32;3.90;;;1.48;;
66970;SDS011;53901;51.466;-2.588;2022-12-29T05:02:58;13.68;;;1.85;;
66970;SDS011;53901;51.466;-2.588;2022-12-29T05:05:24;8.90;;;1.52;;
66970;SDS011;53901;51.466;-2.588;2022-12-29T05:07:49;15.95;;;1.73;;
66970;SDS011;53901;51.466;-2.588;2022-12-29T05:10:14;18.30;;;2.22;;
66970;SDS011;53901;51.466;-2.588;2022-12-29T05:12:40;16.10;;;1.80;;
66970;SDS011;53901;51.466;-2.588;2022-12-29T05:15:06;9.32;;;1.83;;
66970;SDS011;53901;51.466;-2.588;2022-12-29T05:17:32;8.70;;;1.48;;
66970;SDS011;53901;51.466;-2.588;2022-12-29T05:19:58;14.65;;;2.40;;
66970;SDS011;53901;51.466;-2.588;2022-12-29T05:22:23;14.05;;;1.80;;
66970;SDS011;53901;51.466;-2.588;2022-12-29T05:24:49;14.77;;;2.45;;
66970;SDS011;53901;51.466;-2.588;2022-12-29T05:27:14;18.80;;;1.77;;
66970;SDS011;53901;51.466;-2.588;2022-12-29T05:29:40;7.50;;;1.70;;
66970;SDS011;53901;51.466;-2.588;2022-12-29T05:32:05;16.08;;;2.08;;
66970;SDS011;53901;51.466;-2.588;2022-12-29T05:34:30;8.00;;;1.25;;
66970;SDS011;53901;51.466;-2.588;2022-12-29T05:36:56;20.33;;;2.35;;
66970;SDS011;53901;51.466;-2.588;2022-12-29T05:39:21;10.93;;;1.52;;
66970;SDS011;53901;51.466;-2.588;2022-12-29T05:41:47;12.00;;;2.00;;
66970;SDS011;53901;51.466;-2.588;2022-12-29T05:44:12;10.50;;;1.80;;
66970;SDS011;53901;51.466;-2.588;2022-12-29T05:46:37;12.90;;;1.88;;
66970;SDS011;53901;51.466;-2.588;2022-12-29T05:49:03;15.00;;;1.80;;
66970;SDS011;53901;51.466;-2.588;2022-12-29T05:51:29;14.25;;;1.75;;
66970;SDS011;53901;51.466;-2.588;2022-12-29T05:53:54;14.95;;;2.08;;
66970;SDS011;53901;51.466;-2.588;2022-12-29T05:56:19;10.10;;;1.42;;
66970;SDS011;53901;51.466;-2.588;2022-12-29T05:58:45;11.05;;;1.52;;
66970;SDS011;53901;51.466;-2.588;2022-12-29T06:01:10;16.50;;;2.25;;
66970;SDS011;53901;51.466;-2.588;2022-12-29T06:03:36;18.27;;;2.13;;
66970;SDS011;53901;51.466;-2.588;2022-12-29T06:06:01;17.10;;;1.95;;
66970;SDS011;53901;51.466;-2.588;2022-12-29T06:08:26;9.55;;;1.88;;
66970;SDS011;53901;51.466;-2.588;2022-12-29T06:10:52;16.55;;;1.83;;
66970;SDS011;53901;51.466;-2.588;2022-12-29T06:13:17;10.93;;;1.85;;
66970;SDS011;53901;51.466;-2.588;2022-12-29T06:15:42;12.00;;;1.98;;
66970;SDS011;53901;51.466;-2.588;2022-12-29T06:18:08;19.80;;;2.33;;
66970;SDS011;53901;51.466;-2.588;2022-12-29T06:20:33;19.20;;;2.08;;
66970;SDS011;53901;51.466;-2.588;2022-12-29T06:22:59;19.92;;;2.50;;
66970;SDS011;53901;51.466;-2.588;2022-12-29T06:25:24;13.32;;;1.73;;
66970;SDS011;53901;51.466;-2.588;2022-12-29T06:27:49;25.30;;;2.30;;
66970;SDS011;53901;51.466;-2.588;2022-12-29T06:30:15;21.00;;;3.08;;
66970;SDS011;53901;51.466;-2.588;2022-12-29T06:32:41;17.75;;;2.33;;
66970;SDS011;53901;51.466;-2.588;2022-12-29T06:35:07;17.10;;;2.25;;
66970;SDS011;53901;51.466;-2.588;2022-12-29T06:37:33;16.17;;;2.28;;
66970;SDS011;53901;51.466;-2.588;2022-12-29T06:39:59;19.40;;;2.38;;
66970;SDS011;53901;51.466;-2.588;2022-12-29T06:42:24;14.30;;;2.08;;
66970;SDS011;53901;51.466;-2.588;2022-12-29T06:44:49;14.10;;;1.88;;
66970;SDS011;53901;51.466;-2.588;2022-12-29T06:47:15;12.25;;;1.80;;
66970;SDS011;53901;51.466;-2.588;2022-12-29T06:49:40;11.20;;;1.67;;
66970;SDS011;53901;51.466;-2.588;2022-12-29T06:52:06;12.00;;;2.35;;
66970;SDS011;53901;51.466;-2.588;2022-12-29T06:54:31;16.90;;;2.35;;
66970;SDS011;53901;51.466;-2.588;2022-12-29T06:56:57;12.93;;;2.28;;
66970;SDS011;53901;51.466;-2.588;2022-12-29T06:59:22;15.48;;;1.75;;
66970;SDS011;53901;51.466;-2.588;2022-12-29T07:01:48;12.07;;;1.55;;
66970;SDS011;53901;51.466;-2.588;2022-12-29T07:04:13;15.13;;;1.98;;
66970;SDS011;53901;51.466;-2.588;2022-12-29T07:06:39;12.05;;;1.85;;
66970;SDS011;53901;51.466;-2.588;2022-12-29T07:09:06;17.20;;;2.28;;
66970;SDS011;53901;51.466;-2.588;2022-12-29T07:11:32;14.48;;;2.13;;
66970;SDS011;53901;51.466;-2.588;2022-12-29T07:13:58;9.32;;;1.88;;
66970;SDS011;53901;51.466;-2.588;2022-12-29T07:16:23;14.10;;;1.92;;
66970;SDS011;53901;51.466;-2.588;2022-12-29T07:18:49;10.02;;;1.40;;
66970;SDS011;53901;51.466;-2.588;2022-12-29T07:21:14;8.55;;;1.42;;
66970;SDS011;53901;51.466;-2.588;2022-12-29T07:23:40;11.30;;;1.85;;
66970;SDS011;53901;51.466;-2.588;2022-12-29T07:26:06;14.02;;;1.58;;
66970;SDS011;53901;51.466;-2.588;2022-12-29T07:28:34;12.55;;;1.65;;
66970;SDS011;53901;51.466;-2.588;2022-12-29T07:30:59;12.05;;;1.77;;
66970;SDS011;53901;51.466;-2.588;2022-12-29T07:33:25;13.30;;;2.15;;
66970;SDS011;53901;51.466;-2.588;2022-12-29T07:35:53;14.07;;;2.25;;
66970;SDS011;53901;51.466;-2.588;2022-12-29T07:38:18;5.93;;;1.30;;
66970;SDS011;53901;51.466;-2.588;2022-12-29T07:40:43;11.07;;;2.08;;
66970;SDS011;53901;51.466;-2.588;2022-12-29T07:43:09;15.10;;;1.83;;
66970;SDS011;53901;51.466;-2.588;2022-12-29T07:45:34;15.68;;;1.40;;
66970;SDS011;53901;51.466;-2.588;2022-12-29T07:47:59;14.77;;;1.83;;
66970;SDS011;53901;51.466;-2.588;2022-12-29T07:50:27;17.35;;;1.35;;
66970;SDS011;53901;51.466;-2.588;2022-12-29T07:52:52;13.43;;;1.60;;
66970;SDS011;53901;51.466;-2.588;2022-12-29T07:55:18;10.75;;;1.60;;
66970;SDS011;53901;51.466;-2.588;2022-12-29T07:57:43;19.08;;;2.05;;
66970;SDS011;53901;51.466;-2.588;2022-12-29T08:00:09;15.13;;;2.13;;
66970;SDS011;53901;51.466;-2.588;2022-12-29T08:02:35;16.73;;;1.80;;
66970;SDS011;53901;51.466;-2.588;2022-12-29T08:05:01;14.95;;;1.70;;
66970;SDS011;53901;51.466;-2.588;2022-12-29T08:07:26;13.13;;;1.48;;
66970;SDS011;53901;51.466;-2.588;2022-12-29T08:09:52;15.40;;;1.88;;
66970;SDS011;53901;51.466;-2.588;2022-12-29T08:12:17;14.35;;;1.92;;
66970;SDS011;53901;51.466;-2.588;2022-12-29T08:14:43;9.50;;;1.83;;
66970;SDS011;53901;51.466;-2.588;2022-12-29T08:17:08;11.25;;;1.30;;
66970;SDS011;53901;51.466;-2.588;2022-12-29T08:19:33;19.20;;;2.20;;
66970;SDS011;53901;51.466;-2.588;2022-12-29T08:21:59;10.23;;;1.70;;
66970;SDS011;53901;51.466;-2.588;2022-12-29T08:24:24;15.00;;;1.63;;
66970;SDS011;53901;51.466;-2.588;2022-12-29T08:26:49;10.93;;;1.20;;
66970;SDS011;53901;51.466;-2.588;2022-12-29T08:29:15;13.63;;;1.67;;
66970;SDS011;53901;51.466;-2.588;2022-12-29T08:31:40;8.98;;;1.65;;
66970;SDS011;53901;51.466;-2.588;2022-12-29T08:34:06;14.38;;;1.70;;
66970;SDS011;53901;51.466;-2.588;2022-12-29T08:36:31;7.13;;;1.17;;
66970;SDS011;53901;51.466;-2.588;2022-12-29T08:38:57;17.30;;;1.70;;
66970;SDS011;53901;51.466;-2.588;2022-12-29T08:41:22;13.48;;;1.35;;
66970;SDS011;53901;51.466;-2.588;2022-12-29T08:43:48;11.90;;;1.73;;
66970;SDS011;53901;51.466;-2.588;2022-12-29T08:46:14;18.73;;;2.03;;
66970;SDS011;53901;51.466;-2.588;2022-12-29T08:48:40;11.25;;;1.90;;
66970;SDS011;53901;51.466;-2.588;2022-12-29T08:51:05;17.00;;;2.20;;
66970;SDS011;53901;51.466;-2.588;2022-12-29T08:53:31;16.45;;;2.10;;
66970;SDS011;53901;51.466;-2.588;2022-12-29T08:55:57;10.35;;;1.52;;
66970;SDS011;53901;51.466;-2.588;2022-12-29T08:58:23;15.18;;;2.03;;
66970;SDS011;53901;51.466;-2.588;2022-12-29T09:00:51;21.63;;;3.67;;
66970;SDS011;53901;51.466;-2.588;2022-12-29T09:03:20;11.77;;;1.40;;
66970;SDS011;53901;51.466;-2.588;2022-12-29T09:05:53;16.60;;;2.15;;
66970;SDS011;53901;51.466;-2.588;2022-12-29T09:08:19;15.13;;;1.70;;
66970;SDS011;53901;51.466;-2.588;2022-12-29T09:10:45;12.07;;;2.03;;
66970;SDS011;53901;51.466;-2.588;2022-12-29T09:13:12;13.25;;;1.85;;
66970;SDS011;53901;51.466;-2.588;2022-12-29T09:15:38;18.88;;;2.00;;
66970;SDS011;53901;51.466;-2.588;2022-12-29T09:18:04;9.65;;;1.45;;
66970;SDS011;53901;51.466;-2.588;2022-12-29T09:20:30;24.20;;;2.20;;
66970;SDS011;53901;51.466;-2.588;2022-12-29T09:22:55;16.23;;;1.67;;
66970;SDS011;53901;51.466;-2.588;2022-12-29T09:25:21;16.60;;;1.92;;
66970;SDS011;53901;51.466;-2.588;2022-12-29T09:27:49;10.20;;;1.58;;
66970;SDS011;53901;51.466;-2.588;2022-12-29T09:30:17;19.13;;;1.80;;
66970;SDS011;53901;51.466;-2.588;2022-12-29T09:32:43;16.60;;;2.10;;
66970;SDS011;53901;51.466;-2.588;2022-12-29T09:35:08;16.95;;;2.10;;
66970;SDS011;53901;51.466;-2.588;2022-12-29T09:37:34;16.80;;;2.65;;
66970;SDS011;53901;51.466;-2.588;2022-12-29T09:39:59;14.55;;;2.10;;
66970;SDS011;53901;51.466;-2.588;2022-12-29T09:42:29;20.50;;;2.15;;
66970;SDS011;53901;51.466;-2.588;2022-12-29T09:47:29;16.02;;;1.50;;
66970;SDS011;53901;51.466;-2.588;2022-12-29T09:49:56;15.18;;;2.65;;
66970;SDS011;53901;51.466;-2.588;2022-12-29T09:52:28;17.10;;;1.92;;
66970;SDS011;53901;51.466;-2.588;2022-12-29T09:55:02;26.15;;;4.50;;
66970;SDS011;53901;51.466;-2.588;2022-12-29T09:57:35;18.70;;;2.30;;
66970;SDS011;53901;51.466;-2.588;2022-12-29T10:00:15;18.15;;;2.05;;
66970;SDS011;53901;51.466;-2.588;2022-12-29T10:02:49;20.27;;;2.63;;
66970;SDS011;53901;51.466;-2.588;2022-12-29T10:05:32;6.18;;;1.42;;
66970;SDS011;53901;51.466;-2.588;2022-12-29T10:14:10;6.78;;;1.10;;
66970;SDS011;53901;51.466;-2.588;2022-12-29T10:22:37;13.07;;;1.35;;
66970;SDS011;53901;51.466;-2.588;2022-12-29T10:25:16;8.82;;;1.90;;
66970;SDS011;53901;51.466;-2.588;2022-12-29T10:27:44;11.18;;;1.65;;
66970;SDS011;53901;51.466;-2.588;2022-12-29T10:30:12;11.38;;;1.80;;
66970;SDS011;53901;51.466;-2.588;2022-12-29T10:32:49;12.77;;;1.83;;
66970;SDS011;53901;51.466;-2.588;2022-12-29T10:35:21;16.95;;;1.70;;
66970;SDS011;53901;51.466;-2.588;2022-12-29T10:40:32;7.80;;;1.30;;
66970;SDS011;53901;51.466;-2.588;2022-12-29T10:43:18;17.50;;;2.38;;
66970;SDS011;53901;51.466;-2.588;2022-12-29T10:45:45;13.40;;;1.98;;
66970;SDS011;53901;51.466;-2.588;2022-12-29T10:48:15;9.82;;;1.92;;
66970;SDS011;53901;51.466;-2.588;2022-12-29T10:50:45;13.50;;;1.60;;
66970;SDS011;53901;51.466;-2.588;2022-12-29T10:53:15;11.80;;;1.42;;
66970;SDS011;53901;51.466;-2.588;2022-12-29T10:55:44;12.40;;;2.08;;
66970;SDS011;53901;51.466;-2.588;2022-12-29T10:58:11;13.25;;;2.55;;
66970;SDS011;53901;51.466;-2.588;2022-12-29T11:00:38;18.00;;;2.42;;
66970;SDS011;53901;51.466;-2.588;2022-12-29T11:03:08;16.83;;;2.15;;
66970;SDS011;53901;51.466;-2.588;2022-12-29T11:05:37;13.07;;;2.03;;
66970;SDS011;53901;51.466;-2.588;2022-12-29T11:08:57;11.60;;;1.95;;
66970;SDS011;53901;51.466;-2.588;2022-12-29T11:11:24;19.08;;;2.80;;
66970;SDS011;53901;51.466;-2.588;2022-12-29T11:13:59;19.65;;;2.60;;
66970;SDS011;53901;51.466;-2.588;2022-12-29T11:16:33;13.75;;;2.17;;
66970;SDS011;53901;51.466;-2.588;2022-12-29T11:18:59;11.23;;;1.80;;
66970;SDS011;53901;51.466;-2.588;2022-12-29T11:21:36;8.80;;;1.55;;
66970;SDS011;53901;51.466;-2.588;2022-12-29T11:24:26;20.27;;;2.28;;
66970;SDS011;53901;51.466;-2.588;2022-12-29T11:26:53;8.75;;;2.13;;
66970;SDS011;53901;51.466;-2.588;2022-12-29T11:31:54;8.88;;;1.52;;
66970;SDS011;53901;51.466;-2.588;2022-12-29T11:34:24;18.25;;;1.90;;
66970;SDS011;53901;51.466;-2.588;2022-12-29T11:36:52;22.00;;;2.42;;
66970;SDS011;53901;51.466;-2.588;2022-12-29T11:39:23;13.65;;;1.63;;
66970;SDS011;53901;51.466;-2.588;2022-12-29T11:42:02;9.23;;;1.98;;
66970;SDS011;53901;51.466;-2.588;2022-12-29T11:44:28;12.32;;;2.25;;
66970;SDS011;53901;51.466;-2.588;2022-12-29T11:47:03;10.95;;;1.58;;
66970;SDS011;53901;51.466;-2.588;2022-12-29T11:49:29;11.82;;;1.50;;
66970;SDS011;53901;51.466;-2.588;2022-12-29T11:51:54;14.82;;;2.00;;
66970;SDS011;53901;51.466;-2.588;2022-12-29T11:54:25;13.40;;;2.00;;
66970;SDS011;53901;51.466;-2.588;2022-12-29T11:56:53;6.68;;;1.20;;
66970;SDS011;53901;51.466;-2.588;2022-12-29T12:01:56;12.00;;;2.03;;
66970;SDS011;53901;51.466;-2.588;2022-12-29T12:04:23;15.95;;;2.17;;
66970;SDS011;53901;51.466;-2.588;2022-12-29T12:09:38;15.15;;;2.60;;
66970;SDS011;53901;51.466;-2.588;2022-12-29T12:12:14;12.07;;;2.40;;
66970;SDS011;53901;51.466;-2.588;2022-12-29T12:14:51;8.32;;;1.50;;
66970;SDS011;53901;51.466;-2.588;2022-12-29T12:17:37;12.63;;;2.35;;
66970;SDS011;53901;51.466;-2.588;2022-12-29T12:25:23;10.38;;;1.63;;
66970;SDS011;53901;51.466;-2.588;2022-12-29T12:27:59;11.20;;;1.80;;
66970;SDS011;53901;51.466;-2.588;2022-12-29T12:30:28;8.65;;;1.75;;
66970;SDS011;53901;51.466;-2.588;2022-12-29T12:35:44;6.88;;;1.30;;
66970;SDS011;53901;51.466;-2.588;2022-12-29T12:41:12;7.78;;;1.50;;
66970;SDS011;53901;51.466;-2.588;2022-12-29T12:43:40;7.70;;;1.63;;
66970;SDS011;53901;51.466;-2.588;2022-12-29T12:46:24;12.13;;;1.60;;
66970;SDS011;53901;51.466;-2.588;2022-12-29T12:52:16;11.63;;;1.50;;
66970;SDS011;53901;51.466;-2.588;2022-12-29T13:00:41;4.85;;;1.15;;
66970;SDS011;53901;51.466;-2.588;2022-12-29T13:03:13;5.25;;;1.30;;
66970;SDS011;53901;51.466;-2.588;2022-12-29T13:08:18;10.48;;;1.92;;
66970;SDS011;53901;51.466;-2.588;2022-12-29T13:16:31;12.15;;;1.45;;
66970;SDS011;53901;51.466;-2.588;2022-12-29T13:26:52;5.88;;;1.17;;
66970;SDS011;53901;51.466;-2.588;2022-12-29T13:29:21;8.98;;;1.85;;
66970;SDS011;53901;51.466;-2.588;2022-12-29T13:31:54;8.15;;;1.92;;
66970;SDS011;53901;51.466;-2.588;2022-12-29T13:37:45;7.90;;;1.30;;
66970;SDS011;53901;51.466;-2.588;2022-12-29T13:40:15;7.25;;;1.23;;
66970;SDS011;53901;51.466;-2.588;2022-12-29T13:42:42;9.00;;;1.25;;
66970;SDS011;53901;51.466;-2.588;2022-12-29T13:45:19;6.45;;;1.40;;
66970;SDS011;53901;51.466;-2.588;2022-12-29T13:47:54;5.78;;;1.30;;
66970;SDS011;53901;51.466;-2.588;2022-12-29T13:50:24;13.35;;;1.73;;
66970;SDS011;53901;51.466;-2.588;2022-12-29T14:00:38;8.75;;;1.90;;
66970;SDS011;53901;51.466;-2.588;2022-12-29T14:05:43;9.65;;;1.83;;
66970;SDS011;53901;51.466;-2.588;2022-12-29T14:08:27;16.08;;;2.40;;
66970;SDS011;53901;51.466;-2.588;2022-12-29T14:10:53;4.43;;;1.15;;
66970;SDS011;53901;51.466;-2.588;2022-12-29T14:13:19;7.18;;;1.23;;
66970;SDS011;53901;51.466;-2.588;2022-12-29T14:15:50;9.57;;;1.83;;
66970;SDS011;53901;51.466;-2.588;2022-12-29T14:18:20;11.32;;;1.83;;
66970;SDS011;53901;51.466;-2.588;2022-12-29T14:20:54;10.13;;;2.42;;
66970;SDS011;53901;51.466;-2.588;2022-12-29T14:28:26;16.60;;;2.20;;
66970;SDS011;53901;51.466;-2.588;2022-12-29T14:30:53;20.25;;;2.35;;
66970;SDS011;53901;51.466;-2.588;2022-12-29T14:33:21;26.15;;;3.05;;
66970;SDS011;53901;51.466;-2.588;2022-12-29T14:35:48;19.38;;;2.40;;
66970;SDS011;53901;51.466;-2.588;2022-12-29T14:38:18;21.17;;;2.75;;
66970;SDS011;53901;51.466;-2.588;2022-12-29T14:40:45;23.02;;;2.88;;
66970;SDS011;53901;51.466;-2.588;2022-12-29T14:43:22;18.38;;;2.97;;
66970;SDS011;53901;51.466;-2.588;2022-12-29T14:45:54;20.55;;;2.08;;
66970;SDS011;53901;51.466;-2.588;2022-12-29T14:48:43;17.50;;;2.25;;
66970;SDS011;53901;51.466;-2.588;2022-12-29T14:51:17;22.13;;;3.40;;
66970;SDS011;53901;51.466;-2.588;2022-12-29T14:53:48;15.18;;;2.28;;
66970;SDS011;53901;51.466;-2.588;2022-12-29T14:56:15;14.88;;;2.30;;
66970;SDS011;53901;51.466;-2.588;2022-12-29T15:01:33;16.23;;;2.20;;
66970;SDS011;53901;51.466;-2.588;2022-12-29T15:04:05;11.02;;;2.00;;
66970;SDS011;53901;51.466;-2.588;2022-12-29T15:06:42;23.95;;;3.13;;
66970;SDS011;53901;51.466;-2.588;2022-12-29T15:14:25;9.57;;;1.75;;
66970;SDS011;53901;51.466;-2.588;2022-12-29T15:16:55;11.48;;;1.92;;
66970;SDS011;53901;51.466;-2.588;2022-12-29T15:19:21;13.50;;;2.13;;
66970;SDS011;53901;51.466;-2.588;2022-12-29T15:21:48;17.75;;;2.47;;
66970;SDS011;53901;51.466;-2.588;2022-12-29T15:24:13;9.90;;;2.08;;
66970;SDS011;53901;51.466;-2.588;2022-12-29T15:26:40;14.30;;;2.42;;
66970;SDS011;53901;51.466;-2.588;2022-12-29T15:31:56;15.82;;;1.52;;
66970;SDS011;53901;51.466;-2.588;2022-12-29T15:34:23;11.43;;;1.90;;
66970;SDS011;53901;51.466;-2.588;2022-12-29T15:36:52;12.55;;;2.45;;
66970;SDS011;53901;51.466;-2.588;2022-12-29T15:39:26;11.07;;;2.35;;
66970;SDS011;53901;51.466;-2.588;2022-12-29T15:41:56;14.10;;;1.92;;
66970;SDS011;53901;51.466;-2.588;2022-12-29T15:44:40;10.48;;;1.95;;
66970;SDS011;53901;51.466;-2.588;2022-12-29T15:47:18;8.88;;;2.03;;
66970;SDS011;53901;51.466;-2.588;2022-12-29T15:49:49;13.68;;;2.13;;
66970;SDS011;53901;51.466;-2.588;2022-12-29T15:52:19;14.85;;;3.15;;
66970;SDS011;53901;51.466;-2.588;2022-12-29T15:54:45;20.70;;;2.40;;
66970;SDS011;53901;51.466;-2.588;2022-12-29T15:57:36;16.40;;;2.55;;
66970;SDS011;53901;51.466;-2.588;2022-12-29T16:00:03;11.95;;;2.15;;
66970;SDS011;53901;51.466;-2.588;2022-12-29T16:02:42;17.45;;;1.67;;
66970;SDS011;53901;51.466;-2.588;2022-12-29T16:05:15;8.43;;;1.67;;
66970;SDS011;53901;51.466;-2.588;2022-12-29T16:07:51;7.65;;;1.58;;
66970;SDS011;53901;51.466;-2.588;2022-12-29T16:10:22;8.50;;;1.73;;
66970;SDS011;53901;51.466;-2.588;2022-12-29T16:12:51;12.27;;;1.63;;
66970;SDS011;53901;51.466;-2.588;2022-12-29T16:15:17;9.45;;;1.30;;
66970;SDS011;53901;51.466;-2.588;2022-12-29T16:17:47;12.43;;;1.88;;
66970;SDS011;53901;51.466;-2.588;2022-12-29T16:20:17;7.35;;;1.23;;
66970;SDS011;53901;51.466;-2.588;2022-12-29T16:22:49;9.77;;;1.50;;
66970;SDS011;53901;51.466;-2.588;2022-12-29T16:25:49;5.72;;;1.67;;
66970;SDS011;53901;51.466;-2.588;2022-12-29T16:28:41;8.98;;;1.77;;
66970;SDS011;53901;51.466;-2.588;2022-12-29T16:31:16;4.28;;;1.15;;
66970;SDS011;53901;51.466;-2.588;2022-12-29T16:36:21;11.90;;;1.67;;
66970;SDS011;53901;51.466;-2.588;2022-12-29T16:38:50;7.30;;;1.35;;
66970;SDS011;53901;51.466;-2.588;2022-12-29T16:41:29;8.90;;;1.50;;
66970;SDS011;53901;51.466;-2.588;2022-12-29T16:44:11;8.32;;;1.58;;
66970;SDS011;53901;51.466;-2.588;2022-12-29T16:49:42;7.75;;;1.40;;
66970;SDS011;53901;51.466;-2.588;2022-12-29T16:52:16;9.85;;;1.38;;